Alpine, CA (91901)

8:38 AM PST on December 07, 2016 (GMT -0800)
| | Change Station

Elev -9999 ft 0.00 °N, 0.00 °E | Updated

Partly Cloudy
Partly Cloudy
55 °F
Feels Like 55 °F
N
4
Wind Variable Wind from West
Gusts mph

Today
High -- | Low -- °F
--% Chance of Precip.
Yesterday
High -- | Low -- °F
Precip. -- in
Pressure 30.09 in
Visibility 8.0 miles
Clouds Scattered Clouds 1900 ft
Dew Point 52 °F
Humidity 90%
Rainfall --
Snow Depth Not available.
6:36 AM 4:40 PM
First Quarter, 54% visible
METAR KSEE 071547Z 00000KT 8SM SCT019 11/11 A3009
Pressure 30.09 in
Visibility 8.0 miles
Clouds Scattered Clouds 1900 ft
Dew Point 52 °F
Humidity 90%
Rainfall --
Snow Depth Not available.
6:36 AM 4:40 PM
First Quarter, 54% visible
METAR KSEE 071547Z 00000KT 8SM SCT019 11/11 A3009

10-Day Weather Forecast

Almanac

Astronomy

Dec. 07, 2016 Rise Set
Actual Time
Civil Twilight
Nautical Twilight
Astronomical Twilight
Moon
Length of Visible Light
Length of Day
Tomorrow will be .
, % of the Moon is Illuminated

Today's Extremes

State Highs State Lows

Community

WunderPhotos

Upload Photos

1,956,124 photos uploaded!

WunderBlog® & News

Nearby

Air Quality

  Air Quality AQ Index Pollutant
Not available.

Snow Depth

Station Depth Elevation

Earthquake Activity

City Distance Mag. Time & Date
Minimum magnitude displayed is 2.5.

Coastal Water Temperatures

Place Temperature

Stations

Nearby Weather Stations

Station Location Temp. Windchill Dew Point Humidity Wind Precip. Elev Updated Type
                   

Watches & Warnings

There are currently no watches in effect.